ADDS METAR Data INFO
IDs: Format: Raw Decoded Include TAF

Data at: 0212 UTC 14 Dec 2017

KCAK 140151Z 16010KT 3/4SM -SN BR VV011 M06/M08 A2941 RMK AO2 SLP978 P0004 T10611083 RVRNO $
KCAK 140051Z 16010KT 3/4SM -SN VV009 M06/M09 A2947 RMK AO2 SLP996 P0002 T10611089 RVRNO $
KCAK 140014Z 18011KT 3/4SM -SN OVC012 M06/M10 A2950 RMK AO2 P0000 T10611100 RVRNO $
KCAK 140007Z 18010KT 2SM -SN OVC028 M06/M10 A2950 RMK AO2 SFC VIS 2 1/2 P0000 T10611100 $
KCAK 132351Z 16010KT 2 1/2SM -SN OVC034 M06/M10 A2949 RMK AO2 SNB18 SLP005 4/003 P0000 60005 T10611100 11061 21067 55017 $
KCAK 132251Z 16014KT 10SM FEW025 OVC095 M06/M10 A2949 RMK AO2 SLP003 T10611100 $
KCAK 132151Z 15014KT 10SM FEW025 OVC110 M07/M10 A2950 RMK AO2 SLP009 T10671100 $
KCAK 132051Z 16013KT 7SM FEW019 BKN042 OVC100 M07/M10 A2954 RMK AO2 SNE31 PRESFR SLP023 P0002 60005 T10671100 58051 $
KCAK 132025Z 17009KT 3SM -SN BKN017 OVC080 M07/M09 A2957 RMK AO2 SFC VIS 4 P0001 T10671094 $
KCAK 132018Z 17011KT 2SM -SN OVC016 M07/M09 A2958 RMK AO2 P0001 T10671094 $
KCAK 131951Z 18015KT 3/4SM -SN VV012 M07/M10 A2960 RMK AO2 SLP041 P0002 T10671100 RVRNO $
KCAK 131911Z 20011KT 3/4SM -SN VV014 M07/M09 A2964 RMK AO2 TWR VIS 1 VIS 1/2V1 P0001 T10671094 RVRNO $
KCAK 131851Z 20013KT 1SM -SN OVC018 M07/M10 A2966 RMK AO2 SLP062 P0001 T10671100 RVRNO $
KCAK 131822Z 21012KT 1SM -SN BKN019 OVC034 M06/M10 A2968 RMK AO2 P0000 T10611100 RVRNO $
KCAK 131751Z 22014KT 2SM -SN SCT023 OVC038 M06/M11 A2970 RMK AO2 SLP077 SNB10 VIS 1V3 P0000 60000 4/003 933002 T10611111 11056 21094 58034 $
KCAK 131731Z 23014KT 2 1/2SM -SN SCT025 BKN042 OVC080 M06/M11 A2972 RMK AO2 SNB10 P0000 T10611111 $
KCAK 131651Z 25010KT 10SM SCT048 BKN075 BKN220 M06/M12 A2975 RMK AO2 SLP093 T10561122 $
KCAK 131551Z 24011KT 10SM FEW018 SCT044 BKN080 M06/M12 A2979 RMK AO2 SLP106 T10611117 $
KCAK 131451Z 24009KT 10SM BKN042 BKN075 M07/M12 A2981 RMK AO2 SLP113 T10721117 56010 $
KCAK 131351Z 24008KT 10SM OVC039 M08/M13 A2981 RMK AO2 SLP116 T10831133 $
KCAK 131251Z 24007KT 10SM BKN042 M09/M15 A2982 RMK AO2 SLP120 T10891150 $
KCAK 131151Z 27007KT 10SM BKN046 M09/M16 A2984 RMK AO2 SLP126 60000 4/003 70014 T10941156 11089 21100 51008 $
KCAK 131051Z 26007KT 10SM FEW038 OVC049 M10/M16 A2983 RMK AO2 SLP124 T11001161 $
KCAK 130951Z 27008KT 10SM BKN030 OVC050 M10/M17 A2983 RMK AO2 SLP121 T11001167 $
KCAK 130851Z 28009KT 10SM BKN041 OVC050 M09/M15 A2981 RMK AO2 SNE11 SLP115 P0000 60000 T10891150 53003 $
KCAK 130751Z 29010KT 7SM -SN FEW035 OVC048 M09/M14 A2981 RMK AO2 SNE24B51 SLP115 P0000 T10941144 $
KCAK 130728Z 29009KT 6SM HZ SCT029 OVC050 M09/M14 A2981 RMK AO2 SNE24 P0000 T10941139 $
KCAK 130651Z 29011G19KT 1SM -SN FEW014 BKN025 OVC039 M09/M13 A2980 RMK AO2 SFC VIS 2 SLP111 P0000 T10941133 $
KCAK 130622Z 29009KT 1SM -SN FEW014 OVC018 M09/M13 A2980 RMK AO2 SFC VIS 2 P0000 T10941128 $
KCAK 130551Z 29010KT 1SM -SN VV010 M09/M12 A2980 RMK AO2 SLP112 4/003 P0001 60007 T10941122 11083 21094 58002 RVRNO $
KCAK 130451Z 29009KT 1SM -SN VV014 M09/M12 A2981 RMK AO2 SLP113 P0001 T10891122 400171089 RVRNO $
KCAK 130432Z 30010G16KT 1SM -SN FEW012 OVC020 M09/M12 A2981 RMK AO2 P0001 T10891122 RVRNO $
KCAK 130351Z 29010KT 1SM -SN VV012 M09/M12 A2981 RMK AO2 SLP114 P0001 T10891122 RVRNO $
KCAK 130251Z 29010KT 1SM -SN VV011 M09/M12 A2981 RMK AO2 SLP112 P0001 60004 T10891122 58003 RVRNO $
KCAK 130151Z 29010KT 1SM -SN VV013 M09/M12 A2982 RMK AO2 SLP114 P0002 T10891122 RVRNO $
KCAK 130051Z 29010KT 1SM -SN OVC014 M09/M12 A2982 RMK AO2 SLP116 P0001 T10891117 RVRNO $
KCAK 122359Z 30011KT 1SM -SN OVC008 M09/M12 A2982 RMK AO2 P0000 T10891117 RVRNO $
KCAK 122351Z COR 29011KT 2 1/2SM -SN BKN012 OVC023 M08/M12 A2982 RMK AO2 TWR VIS 3 SLP115 P0002 60002 4/001 T10831117 11056 21089 51013 $
KCAK 122322Z 30011KT 3/4SM -SN OVC007 M08/M12 A2982 RMK AO2 TWR VIS 1 1/2 P0001 T10831117 RVRNO $
KCAK 122308Z 31010G19KT 1 1/2SM -SN BKN015 OVC025 M08/M13 A2982 RMK AO2 P0000 T10831128 $
KCAK 122302Z 31013G18KT 2 1/2SM -SN BKN024 OVC036 M08/M13 A2982 RMK AO2 P0000 T10831128 $
KCAK 122251Z 31011KT 9SM -SN FEW034 SCT045 BKN070 M08/M13 A2981 RMK AO2 SNB21E34B50 SLP111 P0000 T10831133 $
KCAK 122151Z 31013G19KT 10SM SCT036 BKN065 M08/M14 A2980 RMK AO2 SNE41 SLP106 P0000 T10831144 $
KCAK 122051Z 33012KT 9SM -SN BKN038 BKN060 M07/M13 A2978 RMK AO2 PK WND 31027/2036 SLP099 P0000 60000 T10671133 53011 $
KCAK 121951Z 31019G23KT 7SM -SN BKN034 BKN055 M07/M13 A2977 RMK AO2 PK WND 30027/1931 SLP095 P0000 T10671128 $
KCAK 121851Z 30014G25KT 5SM -SN BLSN BKN032 OVC044 M06/M13 A2976 RMK AO2 PK WND 31027/1819 SLP090 SNB02 P0000 T10611128 $
KCAK 121751Z 30016G23KT 10SM FEW029 BKN046 M06/M13 A2975 RMK AO2 PK WND 30028/1732 SNE50 SLP087 P0000 60005 4/001 T10561128 11006 21056 50007 $
KCAK 121736Z 31019G28KT 10SM -SN SCT027 BKN048 M05/M13 A2975 RMK AO2 PK WND 30028/1732 P0000 T10501133 $
KCAK 121651Z COR 31018G30KT 7SM -SN BKN029 OVC050 M05/M12 A2975 RMK AO2 PK WND 30030/1644 SLP088 P0000 T10501122 $
KCAK 121551Z 30019G24KT 3SM -SN BLSN BKN016 OVC037 M04/M09 A2974 RMK AO2 PK WND 31031/1526 SLP086 P0001 T10441094 $
KCAK 121507Z 30013G21KT 2SM -SN BLSN FEW007 OVC014 M03/M07 A2974 RMK AO2 T10331067 $
KCAK 121451Z 30015G23KT 3/4SM -SN BLSN FEW007 OVC014 M04/M07 A2973 RMK AO2 SLP080 P0001 60004 T10391067 51027 RVRNO $
KCAK 121427Z 30014KT 3/4SM -SN BKN014 OVC028 M03/M06 A2972 RMK AO2 VIS 1/2V1 P0001 T10281061 RVRNO $